Time;durP1;ratioP1;P1;durP2;ratioP2;P2;SDS_P1;SDS_P2;PMS_P1;PMS_P2;Temp;Humidity;BMP_temperature;BMP_pressure;BME280_temperature;BME280_humidity;BME280_pressure;Samples;Min_cycle;Max_cycle;Signal;HPM_P1;HPM_P2
2023/02/15 00:00:16;;;;;;;46.53;28.47;;;6.30;78.50;;;;;;6245232;23;20008;-68
2023/02/15 00:02:41;;;;;;;49.30;30.17;;;6.30;78.30;;;;;;6245028;23;20000;-68
2023/02/15 00:05:08;;;;;;;39.87;25.23;;;6.30;78.40;;;;;;6245032;23;20004;-67
2023/02/15 00:07:34;;;;;;;39.17;24.33;;;6.30;78.10;;;;;;6245424;23;20334;-67
2023/02/15 00:09:59;;;;;;;41.37;25.53;;;6.30;77.90;;;;;;6244938;23;20028;-68
2023/02/15 00:12:25;;;;;;;33.43;20.30;;;6.30;78.10;;;;;;6245321;23;20446;-68
2023/02/15 00:14:50;;;;;;;42.00;24.23;;;6.40;78.30;;;;;;6245194;23;20004;-67
2023/02/15 00:17:16;;;;;;;35.47;21.80;;;6.40;77.80;;;;;;6245076;23;20004;-68
2023/02/15 00:19:42;;;;;;;35.90;24.30;;;6.40;77.50;;;;;;6244873;23;20029;-67
2023/02/15 00:22:08;;;;;;;38.63;24.60;;;6.40;77.40;;;;;;6244732;23;20000;-68
2023/02/15 00:24:33;;;;;;;45.90;29.63;;;6.40;77.00;;;;;;6245254;23;20399;-68
2023/02/15 00:26:59;;;;;;;42.73;27.63;;;6.40;76.50;;;;;;6247193;23;20000;-68
2023/02/15 00:29:25;;;;;;;48.83;31.00;;;6.40;76.40;;;;;;6246848;23;20008;-67
2023/02/15 00:31:51;;;;;;;50.37;31.37;;;6.40;76.50;;;;;;6220116;23;20007;-67
2023/02/15 00:34:23;;;;;;;52.83;33.63;;;6.40;76.50;;;;;;6246834;23;20004;-67
2023/02/15 00:36:49;;;;;;;52.03;31.93;;;6.30;76.40;;;;;;6247007;23;19997;-67
2023/02/15 00:39:16;;;;;;;50.63;31.13;;;6.30;76.70;;;;;;6247105;23;20431;-68
2023/02/15 00:41:42;;;;;;;52.23;32.57;;;6.20;76.70;;;;;;6247288;23;20007;-68
2023/02/15 00:44:08;;;;;;;51.13;31.53;;;6.20;76.70;;;;;;6247043;23;20075;-67
2023/02/15 00:46:34;;;;;;;59.00;32.30;;;6.20;76.80;;;;;;6246764;23;20000;-67
2023/02/15 00:49:00;;;;;;;53.87;32.00;;;6.20;76.70;;;;;;6247067;23;20083;-68
2023/02/15 00:51:26;;;;;;;48.50;30.53;;;6.20;76.70;;;;;;6247035;23;20003;-68
2023/02/15 00:53:52;;;;;;;52.17;32.83;;;6.10;76.60;;;;;;6247273;23;20004;-68
2023/02/15 00:56:17;;;;;;;51.57;28.03;;;6.10;76.70;;;;;;6246937;23;20000;-67
2023/02/15 00:58:43;;;;;;;36.87;21.00;;;6.10;76.70;;;;;;6243958;23;20011;-68
2023/02/15 01:01:15;;;;;;;37.60;22.20;;;6.10;76.70;;;;;;6216124;23;20461;-68
2023/02/15 01:03:45;;;;;;;33.10;20.67;;;6.20;77.00;;;;;;6244903;23;20000;-68
2023/02/15 01:06:11;;;;;;;35.10;21.23;;;6.20;76.40;;;;;;6246512;23;20000;-66
2023/02/15 01:08:37;;;;;;;32.23;21.30;;;6.30;76.10;;;;;;6246882;23;20015;-67
2023/02/15 01:11:11;;;;;;;31.83;21.80;;;6.30;76.00;;;;;;6246621;23;19996;-67
2023/02/15 01:13:37;;;;;;;45.30;23.57;;;6.40;75.70;;;;;;6246969;23;20004;-67
2023/02/15 01:16:03;;;;;;;37.63;22.73;;;6.30;75.60;;;;;;6246890;23;20030;-68
2023/02/15 01:18:30;;;;;;;41.47;24.50;;;6.30;75.50;;;;;;6246227;23;20465;-66
2023/02/15 01:20:57;;;;;;;37.80;25.30;;;6.20;75.60;;;;;;6246654;23;20000;-67
2023/02/15 01:23:23;;;;;;;39.83;26.27;;;6.20;75.80;;;;;;6244682;23;20008;-70
2023/02/15 01:25:48;;;;;;;41.10;26.50;;;6.20;75.80;;;;;;6243578;23;20012;-67
2023/02/15 01:28:14;;;;;;;44.13;27.73;;;6.10;76.00;;;;;;6243177;23;20012;-67
2023/02/15 01:30:40;;;;;;;46.00;28.80;;;6.10;76.10;;;;;;6245588;23;20488;-67
2023/02/15 01:33:05;;;;;;;42.97;27.37;;;6.10;76.30;;;;;;6246147;23;20370;-68
2023/02/15 01:35:31;;;;;;;45.00;27.67;;;6.00;76.40;;;;;;6246145;23;20000;-69
2023/02/15 01:37:57;;;;;;;43.70;27.50;;;5.90;76.60;;;;;;6246146;23;20023;-67
2023/02/15 01:40:24;;;;;;;45.37;25.77;;;5.90;76.70;;;;;;6246448;23;20423;-67
2023/02/15 01:42:54;;;;;;;42.53;25.30;;;5.90;76.80;;;;;;6246079;23;20000;-67
2023/02/15 01:45:30;;;;;;;44.73;24.87;;;5.90;76.90;;;;;;6245992;23;20286;-67
2023/02/15 01:48:20;;;;;;;37.57;23.17;;;5.90;76.70;;;;;;6246107;23;20007;-67
2023/02/15 01:51:00;;;;;;;33.70;20.97;;;5.90;76.60;;;;;;6246382;23;20000;-68
2023/02/15 01:53:41;;;;;;;18.33;12.10;;;5.90;76.60;;;;;;6245937;23;20028;-68
2023/02/15 01:56:29;;;;;;;18.20;10.80;;;6.00;76.60;;;;;;6245817;23;20008;-67
2023/02/15 01:58:58;;;;;;;21.40;13.97;;;6.10;76.80;;;;;;6246150;23;20296;-68
2023/02/15 02:01:26;;;;;;;19.80;10.83;;;6.10;76.80;;;;;;6246061;23;19999;-67
2023/02/15 02:03:55;;;;;;;20.50;13.83;;;6.20;76.50;;;;;;6246141;23;20413;-68
2023/02/15 02:06:21;;;;;;;21.23;14.40;;;6.30;76.40;;;;;;6246235;23;20030;-67
2023/02/15 02:08:47;;;;;;;29.60;16.77;;;6.30;75.70;;;;;;6245900;23;20375;-67
2023/02/15 02:11:14;;;;;;;27.87;17.97;;;6.40;75.40;;;;;;6246390;23;20322;-68
2023/02/15 02:13:42;;;;;;;28.50;17.87;;;6.40;75.20;;;;;;6246304;23;20354;-68
2023/02/15 02:16:42;;;;;;;30.33;18.90;;;6.40;74.80;;;;;;6245414;23;20007;-68
2023/02/15 02:19:30;;;;;;;29.77;20.57;;;6.40;74.70;;;;;;6245903;23;20012;-68
2023/02/15 02:21:56;;;;;;;31.73;20.10;;;6.30;74.40;;;;;;6245863;23;20000;-67
2023/02/15 02:24:30;;;;;;;22.60;14.60;;;6.30;74.20;;;;;;6245560;23;20061;-67
2023/02/15 02:27:28;;;;;;;18.27;11.17;;;6.20;74.50;;;;;;6245641;23;20004;-67
2023/02/15 02:30:27;;;;;;;14.60;9.23;;;6.20;75.00;;;;;;6245511;23;20020;-67
2023/02/15 02:33:14;;;;;;;13.17;8.57;;;6.30;75.20;;;;;;6245590;23;20008;-68
2023/02/15 02:35:43;;;;;;;17.97;9.43;;;6.40;75.20;;;;;;6219206;23;20053;-68
2023/02/15 02:38:35;;;;;;;14.30;9.27;;;6.50;75.10;;;;;;6245552;23;19996;-68
2023/02/15 02:41:01;;;;;;;14.50;8.73;;;6.60;75.00;;;;;;6189342;23;20008;-67
2023/02/15 02:43:52;;;;;;;14.50;8.83;;;6.60;74.70;;;;;;6245827;23;19996;-71
2023/02/15 02:46:27;;;;;;;17.50;8.63;;;6.70;74.50;;;;;;6245341;23;20075;-68
2023/02/15 02:48:54;;;;;;;13.37;8.50;;;6.80;74.30;;;;;;6245239;23;20450;-67
2023/02/15 02:51:21;;;;;;;16.13;10.17;;;6.90;74.20;;;;;;6245470;23;20492;-67
2023/02/15 02:53:53;;;;;;;14.37;9.20;;;6.90;74.00;;;;;;6245453;23;20004;-68
2023/02/15 02:56:36;;;;;;;16.20;8.77;;;6.90;73.80;;;;;;6245579;23;20000;-68
2023/02/15 02:59:25;;;;;;;13.60;8.63;;;7.00;73.60;;;;;;6245642;23;20027;-68
2023/02/15 03:02:01;;;;;;;20.57;12.07;;;7.10;73.30;;;;;;6245264;23;20524;-67
2023/02/15 03:04:36;;;;;;;24.23;15.20;;;7.10;72.90;;;;;;6245428;23;20003;-67
2023/02/15 03:07:07;;;;;;;22.60;15.10;;;7.10;72.00;;;;;;6245807;23;20015;-68
2023/02/15 03:09:42;;;;;;;26.53;15.73;;;7.00;71.30;;;;;;6245372;23;20086;-68
2023/02/15 03:12:21;;;;;;;27.30;15.10;;;6.90;70.90;;;;;;6245492;23;20075;-67
2023/02/15 03:14:50;;;;;;;21.43;14.77;;;6.80;71.00;;;;;;6245601;23;20435;-70
2023/02/15 03:17:19;;;;;;;24.60;15.73;;;6.80;70.80;;;;;;6245603;23;20335;-67
2023/02/15 03:19:48;;;;;;;27.67;17.10;;;6.80;70.90;;;;;;6245724;23;20022;-68
2023/02/15 03:22:26;;;;;;;25.07;16.33;;;6.70;70.90;;;;;;6245402;23;20370;-67
2023/02/15 03:25:16;;;;;;;26.87;16.23;;;6.60;71.20;;;;;;6245839;23;20365;-68
2023/02/15 03:27:49;;;;;;;21.47;14.50;;;6.50;71.30;;;;;;6245240;23;20057;-67
2023/02/15 03:30:19;;;;;;;26.20;16.03;;;6.40;71.40;;;;;;6245709;23;20334;-66
2023/02/15 03:32:47;;;;;;;26.00;15.47;;;6.40;71.60;;;;;;6245390;23;20434;-67
2023/02/15 03:35:12;;;;;;;25.63;16.10;;;6.30;71.80;;;;;;6245563;23;20075;-68
2023/02/15 03:37:43;;;;;;;20.73;13.90;;;6.30;72.00;;;;;;6245288;23;20446;-68
2023/02/15 03:43:05;;;;;;;;;;;6.20;72.40;;;;;;6245687;23;20011;-68
2023/02/15 03:45:32;;;;;;;24.93;14.57;;;6.10;72.50;;;;;;6218417;23;20277;-66
2023/02/15 03:48:01;;;;;;;23.20;14.67;;;6.10;72.50;;;;;;6245212;23;20091;-67
2023/02/15 03:53:25;;;;;;;23.07;13.93;;;6.00;72.50;;;;;;6233218;23;20051;-68
2023/02/15 03:55:54;;;;;;;23.47;14.17;;;6.00;72.80;;;;;;6218206;23;20087;-68
2023/02/15 04:04:07;;;;;;;21.03;12.83;;;5.90;73.50;;;;;;6247329;23;20050;-69
2023/02/15 04:06:33;;;;;;;21.33;12.50;;;6.00;73.30;;;;;;6247461;23;20339;-68
2023/02/15 04:11:42;;;;;;;22.67;12.93;;;6.00;73.20;;;;;;6247639;23;20011;-67
2023/02/15 04:17:09;;;;;;;18.50;11.87;;;6.00;73.30;;;;;;6184522;23;20389;-68
2023/02/15 04:25:12;;;;;;;21.77;9.67;;;6.00;73.30;;;;;;6247235;23;20011;-68
2023/02/15 04:27:40;;;;;;;23.93;11.50;;;6.00;73.60;;;;;;6247224;23;20088;-67
2023/02/15 04:30:07;;;;;;;23.60;10.53;;;6.00;73.80;;;;;;6247357;23;20034;-68
2023/02/15 04:32:34;;;;;;;23.67;11.37;;;6.00;73.80;;;;;;6247390;23;20004;-68
2023/02/15 04:34:59;;;;;;;25.70;10.53;;;6.10;73.70;;;;;;6247281;23;20012;-68
2023/02/15 04:37:25;;;;;;;18.63;9.73;;;6.00;73.70;;;;;;6246830;23;20386;-67
2023/02/15 04:39:51;;;;;;;22.73;11.03;;;6.00;73.70;;;;;;6247064;23;20040;-68
2023/02/15 04:42:16;;;;;;;18.77;9.03;;;6.10;73.60;;;;;;6220161;23;20008;-68
2023/02/15 04:44:42;;;;;;;19.70;8.73;;;6.00;73.60;;;;;;6247127;23;20004;-69
2023/02/15 04:47:08;;;;;;;16.43;8.97;;;6.10;73.80;;;;;;6247259;23;20011;-67
2023/02/15 04:49:34;;;;;;;14.73;9.07;;;6.10;73.80;;;;;;6246698;23;20022;-67
2023/02/15 04:51:59;;;;;;;14.93;8.40;;;6.10;73.80;;;;;;6246927;23;20003;-68
2023/02/15 04:54:25;;;;;;;12.83;7.97;;;6.10;73.80;;;;;;6246753;23;20327;-68
2023/02/15 04:56:51;;;;;;;17.60;7.73;;;6.20;73.80;;;;;;6246833;23;20300;-68
2023/02/15 04:59:16;;;;;;;15.17;8.70;;;6.30;73.70;;;;;;6246423;23;20296;-67
2023/02/15 05:01:42;;;;;;;13.20;8.63;;;6.40;73.50;;;;;;6246838;23;20004;-67
2023/02/15 05:04:08;;;;;;;13.97;9.03;;;6.40;73.30;;;;;;6246721;23;20075;-67
2023/02/15 05:06:33;;;;;;;13.73;8.13;;;6.50;73.20;;;;;;6246485;23;20004;-67
2023/02/15 05:08:59;;;;;;;13.30;8.37;;;6.50;73.10;;;;;;6246639;23;20008;-67
2023/02/15 05:11:26;;;;;;;14.97;8.43;;;6.60;73.00;;;;;;6246732;23;20004;-68
2023/02/15 05:13:51;;;;;;;13.20;8.63;;;6.70;72.90;;;;;;6246988;23;20411;-67
2023/02/15 05:16:17;;;;;;;13.20;8.33;;;6.70;72.70;;;;;;6246642;23;20008;-67
2023/02/15 05:18:43;;;;;;;14.17;8.37;;;6.80;72.60;;;;;;6246605;23;20101;-67
2023/02/15 05:21:09;;;;;;;15.87;9.17;;;6.80;72.40;;;;;;6246451;23;20000;-68
2023/02/15 05:23:34;;;;;;;14.90;8.33;;;6.80;72.30;;;;;;6246702;23;20004;-68
2023/02/15 05:28:44;;;;;;;18.37;11.20;;;6.90;72.00;;;;;;6246590;23;20074;-68
2023/02/15 05:31:13;;;;;;;27.83;12.57;;;6.90;70.80;;;;;;6246488;23;20423;-70
2023/02/15 05:33:40;;;;;;;20.83;12.07;;;6.80;69.90;;;;;;6246531;23;20031;-68
2023/02/15 05:36:07;;;;;;;21.23;11.70;;;6.70;69.90;;;;;;6246476;23;20002;-68
2023/02/15 05:38:33;;;;;;;25.33;12.53;;;6.60;69.60;;;;;;6246934;23;20095;-68
2023/02/15 05:40:59;;;;;;;21.00;12.67;;;6.50;69.70;;;;;;6245925;23;20019;-67
2023/02/15 05:43:25;;;;;;;21.57;11.60;;;6.40;70.00;;;;;;6246459;23;20008;-68
2023/02/15 05:45:54;;;;;;;18.87;11.13;;;6.40;70.60;;;;;;6219313;23;20365;-68
2023/02/15 05:48:22;;;;;;;17.73;10.70;;;6.30;70.50;;;;;;6246356;23;20444;-68
2023/02/15 05:51:07;;;;;;;19.50;10.23;;;6.30;71.20;;;;;;6245962;23;20319;-68
2023/02/15 05:53:35;;;;;;;17.73;9.87;;;6.30;71.60;;;;;;6246372;23;20000;-68
2023/02/15 05:56:02;;;;;;;14.43;9.10;;;6.40;72.10;;;;;;6246539;23;20077;-66
2023/02/15 05:58:36;;;;;;;15.70;9.13;;;6.40;72.30;;;;;;6246299;23;20054;-69
2023/02/15 06:01:12;;;;;;;15.37;8.57;;;6.50;72.40;;;;;;6246085;23;20004;-71
2023/02/15 06:03:38;;;;;;;13.93;8.77;;;6.50;72.40;;;;;;6246034;23;20000;-71
2023/02/15 06:06:04;;;;;;;14.97;9.03;;;6.60;72.50;;;;;;6246200;23;20007;-71
2023/02/15 06:08:31;;;;;;;12.67;8.97;;;6.70;72.40;;;;;;6246199;23;20015;-71
2023/02/15 06:10:57;;;;;;;25.43;12.40;;;6.70;72.30;;;;;;6246210;23;20004;-72
2023/02/15 06:13:22;;;;;;;22.57;12.13;;;6.70;72.00;;;;;;6246167;23;20338;-76
2023/02/15 06:15:48;;;;;;;24.17;12.20;;;6.80;71.40;;;;;;6245491;23;19996;-75
2023/02/15 06:18:13;;;;;;;21.03;12.30;;;6.70;71.20;;;;;;6245432;23;20022;-70
2023/02/15 06:20:39;;;;;;;23.23;11.73;;;6.70;70.70;;;;;;6245798;23;20075;-70
2023/02/15 06:23:05;;;;;;;17.67;10.67;;;6.70;70.30;;;;;;6245213;23;20049;-70
2023/02/15 06:25:30;;;;;;;19.60;9.73;;;6.60;70.60;;;;;;6246109;23;19996;-69
2023/02/15 06:27:56;;;;;;;16.50;9.83;;;6.60;70.80;;;;;;6218778;23;20046;-70
2023/02/15 06:30:22;;;;;;;13.60;9.27;;;6.60;71.30;;;;;;6245675;23;20063;-70
2023/02/15 06:32:47;;;;;;;15.60;10.00;;;6.60;71.50;;;;;;6245887;23;19997;-70
2023/02/15 06:35:13;;;;;;;18.07;10.07;;;6.60;71.90;;;;;;6245737;23;20079;-70
2023/02/15 06:37:39;;;;;;;20.10;9.67;;;6.70;72.10;;;;;;6245905;23;20489;-71
2023/02/15 06:40:06;;;;;;;13.97;9.03;;;6.70;72.20;;;;;;6245805;23;20366;-71
2023/02/15 06:42:31;;;;;;;17.77;9.67;;;6.70;72.20;;;;;;6245903;23;19996;-72
2023/02/15 06:44:58;;;;;;;17.03;10.10;;;6.80;72.10;;;;;;6245809;23;20007;-78
2023/02/15 06:47:24;;;;;;;15.17;8.93;;;6.80;72.00;;;;;;6245723;23;20133;-84
2023/02/15 06:49:50;;;;;;;15.43;9.20;;;6.90;72.00;;;;;;6245539;23;20048;-76
2023/02/15 06:52:15;;;;;;;19.33;10.60;;;6.90;71.80;;;;;;6245781;23;20002;-81
2023/02/15 06:54:41;;;;;;;20.10;11.77;;;7.00;71.80;;;;;;6246804;23;20039;-85
2023/02/15 06:57:07;;;;;;;24.43;12.20;;;7.00;71.30;;;;;;6246404;23;19997;-86
2023/02/15 06:59:32;;;;;;;24.83;12.83;;;7.00;70.30;;;;;;6246234;23;20000;-81
2023/02/15 07:01:58;;;;;;;31.10;12.40;;;7.00;69.50;;;;;;6245887;23;20049;-77
2023/02/15 07:04:24;;;;;;;34.50;13.03;;;7.00;69.60;;;;;;6245442;23;20004;-75
2023/02/15 07:06:50;;;;;;;29.00;13.03;;;6.90;69.90;;;;;;6244188;23;20510;-72
2023/02/15 07:09:16;;;;;;;26.17;13.30;;;6.80;69.90;;;;;;6244765;23;20319;-81
2023/02/15 07:14:26;;;;;;;23.97;13.77;;;6.60;70.40;;;;;;6244718;23;20074;-71
2023/02/15 07:16:51;;;;;;;23.40;13.13;;;6.60;70.90;;;;;;6245206;23;20431;-72
2023/02/15 07:19:17;;;;;;;29.47;13.33;;;6.60;70.80;;;;;;6244629;23;20015;-72
2023/02/15 07:21:45;;;;;;;27.77;12.60;;;6.60;70.80;;;;;;6244498;23;20027;-72
2023/02/15 07:24:11;;;;;;;27.93;13.30;;;6.70;70.90;;;;;;6245142;23;20084;-73
2023/02/15 07:26:36;;;;;;;31.17;12.53;;;6.70;71.00;;;;;;6244691;23;20024;-71
2023/02/15 07:29:02;;;;;;;25.70;12.93;;;6.70;71.30;;;;;;6244352;23;20473;-69
2023/02/15 07:31:28;;;;;;;23.83;12.03;;;6.80;71.40;;;;;;6244808;23;20000;-72
2023/02/15 07:33:53;;;;;;;22.90;12.67;;;6.80;71.40;;;;;;6245404;23;20003;-72
2023/02/15 07:36:19;;;;;;;23.00;12.23;;;6.90;71.50;;;;;;6218605;23;20374;-71
2023/02/15 07:38:45;;;;;;;24.00;12.60;;;6.90;71.80;;;;;;6245681;23;20004;-71
2023/02/15 07:41:13;;;;;;;24.37;12.47;;;7.00;72.00;;;;;;6245607;23;20000;-75
2023/02/15 07:43:44;;;;;;;31.93;12.93;;;7.00;71.80;;;;;;6218458;23;20366;-73
2023/02/15 07:46:12;;;;;;;19.93;12.57;;;7.10;71.80;;;;;;6245694;23;20005;-78
2023/02/15 07:48:39;;;;;;;22.13;12.87;;;7.10;72.30;;;;;;6245501;23;20019;-77
2023/02/15 07:51:07;;;;;;;19.47;12.93;;;7.20;71.80;;;;;;6245824;23;20039;-75
2023/02/15 07:53:33;;;;;;;23.20;11.93;;;7.20;71.90;;;;;;6245905;23;20004;-74
2023/02/15 07:56:05;;;;;;;32.30;13.27;;;7.30;71.90;;;;;;6244089;23;20000;-80
2023/02/15 08:01:16;;;;;;;22.47;11.67;;;7.40;71.50;;;;;;6245700;23;20103;-78
2023/02/15 08:03:42;;;;;;;32.63;14.13;;;7.50;71.50;;;;;;6245763;23;20011;-85
2023/02/15 08:06:08;;;;;;;27.00;13.53;;;7.50;71.50;;;;;;6249465;23;20071;-86
2023/02/15 08:08:35;;;;;;;32.47;14.50;;;7.60;71.80;;;;;;6261295;23;20008;-81
2023/02/15 08:11:25;;;;;;;28.43;14.77;;;7.70;72.00;;;;;;6253963;23;20087;-89
2023/02/15 08:13:59;;;;;;;31.00;15.07;;;7.70;72.50;;;;;;6246555;23;20075;-86
2023/02/15 08:16:34;;;;;;;36.93;14.83;;;7.80;72.80;;;;;;6246203;23;20322;-87
2023/02/15 08:19:11;;;;;;;28.53;13.30;;;8.00;72.80;;;;;;6246440;23;20016;-88
2023/02/15 08:21:39;;;;;;;20.77;11.57;;;8.00;73.10;;;;;;6246381;23;20059;-87
2023/02/15 08:24:07;;;;;;;16.90;9.33;;;8.10;72.80;;;;;;6246485;23;20012;-88
2023/02/15 08:26:33;;;;;;;17.87;9.30;;;8.20;71.80;;;;;;6219330;23;20008;-88
2023/02/15 08:29:00;;;;;;;17.27;9.43;;;8.30;71.30;;;;;;6246885;23;20052;-88
2023/02/15 08:31:26;;;;;;;15.53;9.00;;;8.40;70.80;;;;;;6246403;23;20025;-90
2023/02/15 08:33:54;;;;;;;14.33;9.27;;;8.50;70.40;;;;;;6219648;23;20334;-87
2023/02/15 08:36:22;;;;;;;12.63;8.87;;;8.60;70.20;;;;;;6246873;23;20000;-88
2023/02/15 08:38:48;;;;;;;16.93;9.20;;;8.70;69.70;;;;;;6246403;23;20004;-88
2023/02/15 08:41:15;;;;;;;15.90;8.20;;;8.80;69.30;;;;;;6246418;23;20303;-86
2023/02/15 08:43:41;;;;;;;15.13;8.33;;;8.90;69.50;;;;;;6246509;23;20000;-86
2023/02/15 08:46:08;;;;;;;12.93;8.30;;;9.00;68.90;;;;;;6246896;23;20023;-89
2023/02/15 08:48:34;;;;;;;15.03;8.63;;;9.10;68.20;;;;;;6247778;23;20008;-81
2023/02/15 08:51:06;;;;;;;16.07;8.40;;;9.20;67.60;;;;;;6250997;23;20079;-74
2023/02/15 08:53:32;;;;;;;16.80;9.40;;;9.30;67.40;;;;;;6257760;23;20004;-88
2023/02/15 08:55:58;;;;;;;13.50;8.97;;;9.40;67.10;;;;;;6259049;23;20444;-88
2023/02/15 08:58:24;;;;;;;15.97;8.83;;;9.40;67.00;;;;;;6258011;23;20001;-87
2023/02/15 09:00:50;;;;;;;17.47;8.27;;;9.50;66.60;;;;;;6255134;23;20003;-75
2023/02/15 09:03:16;;;;;;;19.97;8.37;;;9.60;66.70;;;;;;6254759;23;20061;-89
2023/02/15 09:05:41;;;;;;;13.43;7.93;;;9.70;66.40;;;;;;6248821;23;20020;-83
2023/02/15 09:08:07;;;;;;;15.17;8.57;;;9.70;66.10;;;;;;6247833;23;20004;-84
2023/02/15 09:10:33;;;;;;;15.70;8.60;;;9.80;65.50;;;;;;6247640;23;20008;-79
2023/02/15 09:12:58;;;;;;;18.13;8.23;;;9.90;65.20;;;;;;6247611;23;20024;-88
2023/02/15 09:15:24;;;;;;;15.70;7.73;;;10.00;64.90;;;;;;6220488;23;20018;-85
2023/02/15 09:17:50;;;;;;;13.43;7.70;;;10.00;64.30;;;;;;6247574;23;20013;-89
2023/02/15 09:20:15;;;;;;;14.80;8.23;;;10.10;63.90;;;;;;6247494;23;19996;-86
2023/02/15 09:22:41;;;;;;;13.00;8.20;;;10.20;64.00;;;;;;6247441;23;20011;-83
2023/02/15 09:25:07;;;;;;;16.70;8.53;;;10.20;63.50;;;;;;6247372;23;20004;-88
2023/02/15 09:27:32;;;;;;;16.93;11.20;;;10.30;63.50;;;;;;6247142;23;20007;-83
2023/02/15 09:29:59;;;;;;;19.00;10.63;;;10.40;63.30;;;;;;6247693;23;20445;-84
2023/02/15 09:32:24;;;;;;;23.57;11.53;;;10.50;64.20;;;;;;6246817;23;20024;-84
2023/02/15 09:34:50;;;;;;;18.23;10.10;;;10.60;64.70;;;;;;6247377;23;20008;-89
2023/02/15 09:37:16;;;;;;;20.30;9.90;;;10.70;63.60;;;;;;6246912;23;20002;-86
2023/02/15 09:39:43;;;;;;;17.23;10.20;;;10.80;63.30;;;;;;6247138;23;20058;-83
2023/02/15 09:42:17;;;;;;;19.00;10.23;;;10.90;62.70;;;;;;6246588;23;20443;-86
2023/02/15 09:45:14;;;;;;;22.67;10.50;;;11.00;62.20;;;;;;6220226;23;20083;-84
2023/02/15 09:47:58;;;;;;;23.47;10.43;;;11.10;61.80;;;;;;6246002;23;20000;-80
2023/02/15 09:50:43;;;;;;;21.93;10.83;;;11.20;61.80;;;;;;6244993;23;20012;-80
2023/02/15 09:53:53;;;;;;;15.40;9.52;;;11.30;61.70;;;;;;6244654;23;20000;-84
2023/02/15 09:56:27;;;;;;;21.63;9.40;;;11.40;61.20;;;;;;6215912;23;20004;-84
2023/02/15 09:59:11;;;;;;;14.57;8.82;;;11.50;61.20;;;;;;6246198;23;20001;-83
2023/02/15 10:01:50;;;;;;;22.60;8.18;;;11.60;59.70;;;;;;6246725;23;20000;-83
2023/02/15 10:04:37;;;;;;;14.90;9.05;;;11.60;59.80;;;;;;6246713;23;19999;-83
2023/02/15 10:07:18;;;;;;;14.73;7.28;;;11.70;60.00;;;;;;6246510;23;20054;-84
2023/02/15 10:10:15;;;;;;;14.32;9.10;;;11.80;59.40;;;;;;6246859;23;20077;-84
2023/02/15 10:13:00;;;;;;;13.65;9.00;;;12.00;58.90;;;;;;6219661;23;20320;-82
2023/02/15 10:15:51;;;;;;;18.33;8.52;;;12.10;58.60;;;;;;6246246;23;20023;-79
2023/02/15 10:18:31;;;;;;;17.90;7.80;;;12.20;58.30;;;;;;6246198;23;20008;-83
2023/02/15 10:21:09;;;;;;;15.32;8.13;;;12.30;57.90;;;;;;6246000;23;20008;-83
2023/02/15 10:23:47;;;;;;;12.63;7.55;;;12.40;58.00;;;;;;6245994;23;20004;-83
2023/02/15 10:26:29;;;;;;;14.70;7.80;;;12.50;57.40;;;;;;6245957;23;20423;-84
2023/02/15 10:29:35;;;;;;;13.27;7.75;;;12.60;57.00;;;;;;6246354;23;20020;-80
2023/02/15 10:32:26;;;;;;;13.68;8.05;;;12.70;56.50;;;;;;6246606;23;20000;-83
2023/02/15 10:34:54;;;;;;;12.43;8.32;;;12.80;56.20;;;;;;6272163;23;19996;-78
2023/02/15 10:37:34;;;;;;;12.32;8.30;;;12.80;55.70;;;;;;6248776;23;20004;-84
2023/02/15 10:39:59;;;;;;;20.38;8.73;;;12.90;56.10;;;;;;6246799;23;20000;-84
2023/02/15 10:42:28;;;;;;;12.07;8.25;;;13.00;55.60;;;;;;6246738;23;20007;-81
2023/02/15 10:45:32;;;;;;;11.52;7.95;;;13.10;55.20;;;;;;6246837;23;20000;-84
2023/02/15 10:48:11;;;;;;;11.88;8.07;;;13.20;54.30;;;;;;6219938;23;20004;-80
2023/02/15 10:50:46;;;;;;;14.88;7.72;;;13.30;53.60;;;;;;6246250;23;20074;-83
2023/02/15 10:53:24;;;;;;;16.80;8.20;;;13.40;53.70;;;;;;6219165;23;20000;-83
2023/02/15 10:56:03;;;;;;;13.00;8.27;;;13.50;53.50;;;;;;6246290;23;20007;-82
2023/02/15 10:58:47;;;;;;;12.23;7.82;;;13.70;53.70;;;;;;6246334;23;20442;-83
2023/02/15 11:01:27;;;;;;;15.70;7.10;;;13.80;53.00;;;;;;6246556;23;20433;-83
2023/02/15 11:03:52;;;;;;;18.58;7.47;;;13.90;52.50;;;;;;6246064;23;20192;-82
2023/02/15 11:06:20;;;;;;;10.13;6.82;;;13.90;51.90;;;;;;6245849;23;20004;-84
2023/02/15 11:08:55;;;;;;;15.85;7.90;;;14.10;51.60;;;;;;6245641;23;20012;-83
2023/02/15 11:11:32;;;;;;;12.55;6.88;;;14.20;51.30;;;;;;6246540;23;19996;-83
2023/02/15 11:14:20;;;;;;;20.08;7.10;;;14.30;51.60;;;;;;6246563;23;20377;-83
2023/02/15 11:16:50;;;;;;;13.82;6.82;;;14.30;51.40;;;;;;6246054;23;20079;-83
2023/02/15 11:19:42;;;;;;;14.15;6.38;;;14.50;51.60;;;;;;6245323;23;20012;-84
2023/02/15 11:22:11;;;;;;;12.10;6.80;;;14.50;51.10;;;;;;6238939;23;20442;-84
2023/02/15 11:24:43;;;;;;;11.98;6.25;;;14.70;50.80;;;;;;6246106;23;19996;-84
2023/02/15 11:27:12;;;;;;;14.18;6.85;;;14.80;50.60;;;;;;6219265;23;20008;-83
2023/02/15 11:30:12;;;;;;;12.45;6.95;;;14.90;50.30;;;;;;6245621;23;20015;-83
2023/02/15 11:32:46;;;;;;;12.50;7.07;;;15.00;49.80;;;;;;6245642;23;20427;-84
2023/02/15 11:35:12;;;;;;;12.68;6.68;;;15.10;49.30;;;;;;6245895;23;20022;-84
2023/02/15 11:38:14;;;;;;;12.45;6.53;;;15.10;48.90;;;;;;6245544;23;20027;-84
2023/02/15 11:40:49;;;;;;;13.20;5.80;;;15.20;48.70;;;;;;6241165;23;20061;-84
2023/02/15 11:43:37;;;;;;;11.60;6.18;;;15.30;48.00;;;;;;6245631;23;20004;-84
2023/02/15 11:46:03;;;;;;;10.55;5.88;;;15.40;47.80;;;;;;6245996;23;20338;-84
2023/02/15 11:48:31;;;;;;;11.75;5.93;;;15.50;47.30;;;;;;6245463;23;20035;-84
2023/02/15 11:50:57;;;;;;;10.30;5.82;;;15.60;47.20;;;;;;6245630;23;20007;-84
2023/02/15 11:53:27;;;;;;;9.82;5.85;;;15.70;47.30;;;;;;6245668;23;20000;-84
2023/02/15 11:55:54;;;;;;;6.18;4.72;;;15.80;47.20;;;;;;6245786;23;20331;-84
2023/02/15 11:58:22;;;;;;;7.90;4.90;;;15.90;46.40;;;;;;6245548;23;20024;-84
2023/02/15 12:00:53;;;;;;;10.07;4.78;;;15.90;45.60;;;;;;6245669;23;20036;-84
2023/02/15 12:03:28;;;;;;;11.20;5.32;;;16.00;45.90;;;;;;6218786;23;20008;-82
2023/02/15 12:06:01;;;;;;;6.47;4.63;;;16.10;45.50;;;;;;6245908;23;20000;-85
2023/02/15 12:08:43;;;;;;;10.02;5.35;;;16.20;45.70;;;;;;6245854;23;20419;-85
2023/02/15 12:11:20;;;;;;;9.70;4.75;;;16.20;45.10;;;;;;6245802;23;20442;-84
2023/02/15 12:14:01;;;;;;;6.85;5.00;;;16.30;45.20;;;;;;6246052;23;20050;-83
2023/02/15 12:16:29;;;;;;;9.20;4.05;;;16.30;45.20;;;;;;6245588;23;20026;-83
2023/02/15 12:19:00;;;;;;;8.23;4.40;;;16.40;44.80;;;;;;6244967;23;20520;-81
2023/02/15 12:21:33;;;;;;;7.70;4.28;;;16.50;44.30;;;;;;6247043;23;20053;-82
2023/02/15 12:24:27;;;;;;;8.90;5.10;;;16.60;44.50;;;;;;6247714;23;20000;-84
2023/02/15 12:27:00;;;;;;;5.72;4.35;;;16.70;44.80;;;;;;6247077;23;20007;-84
2023/02/15 12:29:30;;;;;;;9.30;5.40;;;16.80;44.20;;;;;;6220303;23;20012;-84
2023/02/15 12:31:57;;;;;;;6.50;4.68;;;16.90;44.10;;;;;;6247378;23;20418;-83
2023/02/15 12:34:31;;;;;;;5.22;3.95;;;16.90;43.60;;;;;;6247729;23;20026;-84
2023/02/15 12:37:01;;;;;;;14.40;4.55;;;17.00;43.40;;;;;;6247331;23;20008;-85
2023/02/15 12:39:32;;;;;;;6.95;4.55;;;17.10;43.50;;;;;;6247214;23;20007;-82
2023/02/15 12:42:19;;;;;;;8.52;4.38;;;17.20;43.10;;;;;;6247636;23;19996;-84
2023/02/15 12:44:59;;;;;;;7.28;3.92;;;17.20;43.00;;;;;;6247515;23;20442;-85
2023/02/15 12:47:26;;;;;;;8.95;4.72;;;17.30;43.10;;;;;;6247590;23;20000;-85
2023/02/15 12:50:22;;;;;;;8.38;4.70;;;17.40;42.80;;;;;;6247361;23;20435;-85
2023/02/15 12:52:50;;;;;;;7.47;5.22;;;17.50;42.70;;;;;;6247270;23;20134;-80
2023/02/15 12:55:26;;;;;;;12.23;4.80;;;17.50;42.70;;;;;;6220086;23;20327;-84
2023/02/15 12:58:17;;;;;;;9.35;4.20;;;17.50;42.80;;;;;;6219826;23;20012;-77
2023/02/15 13:00:43;;;;;;;6.10;4.55;;;17.60;43.60;;;;;;6248264;23;20004;-86
2023/02/15 13:03:18;;;;;;;8.93;4.68;;;17.60;43.80;;;;;;6249524;23;20442;-78
2023/02/15 13:05:46;;;;;;;10.25;4.28;;;17.70;43.30;;;;;;6262074;23;19997;-82
2023/02/15 13:08:19;;;;;;;15.05;5.82;;;17.80;43.20;;;;;;6249542;23;20000;-80
2023/02/15 13:10:56;;;;;;;13.82;5.13;;;17.90;43.70;;;;;;6245949;23;20316;-78
2023/02/15 13:13:25;;;;;;;8.50;4.72;;;17.90;41.80;;;;;;6247129;23;20049;-84
2023/02/15 13:15:53;;;;;;;7.28;4.93;;;18.00;42.70;;;;;;6247831;23;20028;-87
2023/02/15 13:18:46;;;;;;;9.73;4.80;;;18.00;42.20;;;;;;6247560;23;20012;-87
2023/02/15 13:21:18;;;;;;;6.80;4.22;;;18.00;42.20;;;;;;6247457;23;20043;-83
2023/02/15 13:23:54;;;;;;;7.65;4.45;;;18.10;42.60;;;;;;6247510;23;20008;-83
2023/02/15 13:26:23;;;;;;;7.57;4.70;;;18.10;42.40;;;;;;6246828;23;20443;-83
2023/02/15 13:28:53;;;;;;;9.77;5.18;;;18.20;41.80;;;;;;6246841;23;20023;-81
2023/02/15 13:31:23;;;;;;;8.98;5.15;;;18.20;41.40;;;;;;6246309;23;20000;-80